<?xml version="1.0" encoding="UTF-8" standalone="no" ?>
<gpx xmlns="http://www.topografix.com/GPX/1/1" xmlns:xsi="http://www.w3.org/2001/XMLSchema-instance" xsi:schemaLocation="http://www.topografix.com/GPX/1/1 http://www.topografix.com/GPX/1/1/gpx.xsd" version="1.1" creator="VisuGPX - https://www.visugpx.com">
  <metadata>
    <name>Course à pied en soirée</name>
  </metadata>
  <trk>
    <name><![CDATA[Course à pied en soirée_1]]></name>
    <trkseg>
      <trkpt lat="43.64709" lon="1.37688">
        <ele>151</ele>
        <time>2023-06-23T16:12:50Z</time>
      </trkpt>
      <trkpt lat="43.64708" lon="1.37689">
        <ele>151</ele>
        <time>2023-06-23T16:12:51Z</time>
      </trkpt>
      <trkpt lat="43.64707" lon="1.3769">
        <ele>150</ele>
        <time>2023-06-23T16:12:52Z</time>
      </trkpt>
      <trkpt lat="43.64705" lon="1.37691">
        <ele>149</ele>
        <time>2023-06-23T16:12:53Z</time>
      </trkpt>
      <trkpt lat="43.64704" lon="1.37693">
        <ele>149</ele>
        <time>2023-06-23T16:12:54Z</time>
      </trkpt>
      <trkpt lat="43.64703" lon="1.37694">
        <ele>149</ele>
        <time>2023-06-23T16:12:55Z</time>
      </trkpt>
      <trkpt lat="43.64702" lon="1.37695">
        <ele>149</ele>
        <time>2023-06-23T16:12:56Z</time>
      </trkpt>
      <trkpt lat="43.64701" lon="1.37696">
        <ele>149</ele>
        <time>2023-06-23T16:12:57Z</time>
      </trkpt>
      <trkpt lat="43.64699" lon="1.37696">
        <ele>150</ele>
        <time>2023-06-23T16:12:58Z</time>
      </trkpt>
      <trkpt lat="43.64698" lon="1.37696">
        <ele>150</ele>
        <time>2023-06-23T16:12:59Z</time>
      </trkpt>
      <trkpt lat="43.64697" lon="1.37697">
        <ele>150</ele>
        <time>2023-06-23T16:13:00Z</time>
      </trkpt>
      <trkpt lat="43.64696" lon="1.37697">
        <ele>150</ele>
        <time>2023-06-23T16:13:01Z</time>
      </trkpt>
      <trkpt lat="43.64689" lon="1.37699">
        <ele>150</ele>
        <time>2023-06-23T16:13:02Z</time>
      </trkpt>
      <trkpt lat="43.64688" lon="1.37699">
        <ele>150</ele>
        <time>2023-06-23T16:13:03Z</time>
      </trkpt>
      <trkpt lat="43.64687" lon="1.37699">
        <ele>150</ele>
        <time>2023-06-23T16:13:04Z</time>
      </trkpt>
      <trkpt lat="43.64685" lon="1.37699">
        <ele>150</ele>
        <time>2023-06-23T16:13:05Z</time>
      </trkpt>
      <trkpt lat="43.64678" lon="1.37698">
        <ele>150</ele>
        <time>2023-06-23T16:13:06Z</time>
      </trkpt>
      <trkpt lat="43.64676" lon="1.37697">
        <ele>150</ele>
        <time>2023-06-23T16:13:07Z</time>
      </trkpt>
      <trkpt lat="43.64673" lon="1.37696">
        <ele>150</ele>
        <time>2023-06-23T16:13:08Z</time>
      </trkpt>
      <trkpt lat="43.64671" lon="1.37695">
        <ele>150</ele>
        <time>2023-06-23T16:13:09Z</time>
      </trkpt>
      <trkpt lat="43.6467" lon="1.37695">
        <ele>150</ele>
        <time>2023-06-23T16:13:10Z</time>
      </trkpt>
      <trkpt lat="43.64668" lon="1.37695">
        <ele>150</ele>
        <time>2023-06-23T16:13:11Z</time>
      </trkpt>
      <trkpt lat="43.64666" lon="1.37696">
        <ele>150</ele>
        <time>2023-06-23T16:13:12Z</time>
      </trkpt>
      <trkpt lat="43.64665" lon="1.37696">
        <ele>150</ele>
        <time>2023-06-23T16:13:13Z</time>
      </trkpt>
      <trkpt lat="43.64663" lon="1.37696">
        <ele>150</ele>
        <time>2023-06-23T16:13:14Z</time>
      </trkpt>
      <trkpt lat="43.64662" lon="1.37696">
        <ele>149</ele>
        <time>2023-06-23T16:13:15Z</time>
      </trkpt>
      <trkpt lat="43.6466" lon="1.37697">
        <ele>150</ele>
        <time>2023-06-23T16:13:16Z</time>
      </trkpt>
      <trkpt lat="43.64657" lon="1.37698">
        <ele>150</ele>
        <time>2023-06-23T16:13:17Z</time>
      </trkpt>
      <trkpt lat="43.64654" lon="1.37699">
        <ele>150</ele>
        <time>2023-06-23T16:13:18Z</time>
      </trkpt>
      <trkpt lat="43.6465" lon="1.377">
        <ele>150</ele>
        <time>2023-06-23T16:13:19Z</time>
      </trkpt>
      <trkpt lat="43.64648" lon="1.37701">
        <ele>150</ele>
        <time>2023-06-23T16:13:20Z</time>
      </trkpt>
      <trkpt lat="43.64646" lon="1.37702">
        <ele>150</ele>
        <time>2023-06-23T16:13:21Z</time>
      </trkpt>
      <trkpt lat="43.64643" lon="1.37703">
        <ele>150</ele>
        <time>2023-06-23T16:13:22Z</time>
      </trkpt>
      <trkpt lat="43.64641" lon="1.37704">
        <ele>150</ele>
        <time>2023-06-23T16:13:23Z</time>
      </trkpt>
      <trkpt lat="43.64639" lon="1.37703">
        <ele>150</ele>
        <time>2023-06-23T16:13:24Z</time>
      </trkpt>
      <trkpt lat="43.64638" lon="1.37702">
        <ele>149</ele>
        <time>2023-06-23T16:13:25Z</time>
      </trkpt>
      <trkpt lat="43.64636" lon="1.377">
        <ele>149</ele>
        <time>2023-06-23T16:13:26Z</time>
      </trkpt>
      <trkpt lat="43.64634" lon="1.37699">
        <ele>149</ele>
        <time>2023-06-23T16:13:27Z</time>
      </trkpt>
      <trkpt lat="43.64632" lon="1.37698">
        <ele>149</ele>
        <time>2023-06-23T16:13:28Z</time>
      </trkpt>
      <trkpt lat="43.6463" lon="1.37698">
        <ele>149</ele>
        <time>2023-06-23T16:13:29Z</time>
      </trkpt>
      <trkpt lat="43.64628" lon="1.37699">
        <ele>149</ele>
        <time>2023-06-23T16:13:30Z</time>
      </trkpt>
      <trkpt lat="43.64626" lon="1.377">
        <ele>149</ele>
        <time>2023-06-23T16:13:31Z</time>
      </trkpt>
      <trkpt lat="43.64624" lon="1.37701">
        <ele>149</ele>
        <time>2023-06-23T16:13:32Z</time>
      </trkpt>
      <trkpt lat="43.64623" lon="1.37703">
        <ele>149</ele>
        <time>2023-06-23T16:13:33Z</time>
      </trkpt>
      <trkpt lat="43.64622" lon="1.37706">
        <ele>149</ele>
        <time>2023-06-23T16:13:34Z</time>
      </trkpt>
      <trkpt lat="43.6462" lon="1.37709">
        <ele>149</ele>
        <time>2023-06-23T16:13:35Z</time>
      </trkpt>
      <trkpt lat="43.64619" lon="1.37711">
        <ele>149</ele>
        <time>2023-06-23T16:13:36Z</time>
      </trkpt>
      <trkpt lat="43.64618" lon="1.37714">
        <ele>149</ele>
        <time>2023-06-23T16:13:37Z</time>
      </trkpt>
      <trkpt lat="43.64616" lon="1.37717">
        <ele>149</ele>
        <time>2023-06-23T16:13:38Z</time>
      </trkpt>
      <trkpt lat="43.64615" lon="1.3772">
        <ele>149</ele>
        <time>2023-06-23T16:13:39Z</time>
      </trkpt>
      <trkpt lat="43.64615" lon="1.37721">
        <ele>149</ele>
        <time>2023-06-23T16:13:40Z</time>
      </trkpt>
      <trkpt lat="43.64615" lon="1.37722">
        <ele>149</ele>
        <time>2023-06-23T16:13:41Z</time>
      </trkpt>
      <trkpt lat="43.64614" lon="1.37724">
        <ele>149</ele>
        <time>2023-06-23T16:13:42Z</time>
      </trkpt>
      <trkpt lat="43.64614" lon="1.37725">
        <ele>149</ele>
        <time>2023-06-23T16:13:43Z</time>
      </trkpt>
      <trkpt lat="43.64613" lon="1.37726">
        <ele>149</ele>
        <time>2023-06-23T16:13:44Z</time>
      </trkpt>
      <trkpt lat="43.64611" lon="1.37736">
        <ele>149</ele>
        <time>2023-06-23T16:13:45Z</time>
      </trkpt>
      <trkpt lat="43.64611" lon="1.37738">
        <ele>149</ele>
        <time>2023-06-23T16:13:46Z</time>
      </trkpt>
      <trkpt lat="43.64611" lon="1.37741">
        <ele>149</ele>
        <time>2023-06-23T16:13:47Z</time>
      </trkpt>
      <trkpt lat="43.6461" lon="1.37743">
        <ele>149</ele>
        <time>2023-06-23T16:13:48Z</time>
      </trkpt>
      <trkpt lat="43.6461" lon="1.37746">
        <ele>149</ele>
        <time>2023-06-23T16:13:49Z</time>
      </trkpt>
      <trkpt lat="43.6461" lon="1.37749">
        <ele>149</ele>
        <time>2023-06-23T16:13:50Z</time>
      </trkpt>
      <trkpt lat="43.64609" lon="1.37751">
        <ele>149</ele>
        <time>2023-06-23T16:13:51Z</time>
      </trkpt>
      <trkpt lat="43.64608" lon="1.37753">
        <ele>149</ele>
        <time>2023-06-23T16:13:52Z</time>
      </trkpt>
      <trkpt lat="43.64608" lon="1.37756">
        <ele>149</ele>
        <time>2023-06-23T16:13:53Z</time>
      </trkpt>
      <trkpt lat="43.64607" lon="1.37761">
        <ele>150</ele>
        <time>2023-06-23T16:13:54Z</time>
      </trkpt>
      <trkpt lat="43.64607" lon="1.37763">
        <ele>150</ele>
        <time>2023-06-23T16:13:55Z</time>
      </trkpt>
      <trkpt lat="43.64606" lon="1.37766">
        <ele>150</ele>
        <time>2023-06-23T16:13:56Z</time>
      </trkpt>
      <trkpt lat="43.64605" lon="1.37769">
        <ele>150</ele>
        <time>2023-06-23T16:13:57Z</time>
      </trkpt>
      <trkpt lat="43.64604" lon="1.37772">
        <ele>149</ele>
        <time>2023-06-23T16:13:58Z</time>
      </trkpt>
      <trkpt lat="43.64603" lon="1.37775">
        <ele>149</ele>
        <time>2023-06-23T16:13:59Z</time>
      </trkpt>
      <trkpt lat="43.64602" lon="1.37778">
        <ele>149</ele>
        <time>2023-06-23T16:14:00Z</time>
      </trkpt>
      <trkpt lat="43.64601" lon="1.37781">
        <ele>149</ele>
        <time>2023-06-23T16:14:01Z</time>
      </trkpt>
      <trkpt lat="43.646" lon="1.37784">
        <ele>149</ele>
        <time>2023-06-23T16:14:02Z</time>
      </trkpt>
      <trkpt lat="43.64599" lon="1.37786">
        <ele>149</ele>
        <time>2023-06-23T16:14:03Z</time>
      </trkpt>
      <trkpt lat="43.64598" lon="1.37789">
        <ele>149</ele>
        <time>2023-06-23T16:14:04Z</time>
      </trkpt>
      <trkpt lat="43.64597" lon="1.37792">
        <ele>149</ele>
        <time>2023-06-23T16:14:05Z</time>
      </trkpt>
      <trkpt lat="43.64596" lon="1.37795">
        <ele>149</ele>
        <time>2023-06-23T16:14:06Z</time>
      </trkpt>
      <trkpt lat="43.64595" lon="1.37799">
        <ele>149</ele>
        <time>2023-06-23T16:14:07Z</time>
      </trkpt>
      <trkpt lat="43.64594" lon="1.37802">
        <ele>149</ele>
        <time>2023-06-23T16:14:08Z</time>
      </trkpt>
      <trkpt lat="43.64592" lon="1.37805">
        <ele>148</ele>
        <time>2023-06-23T16:14:09Z</time>
      </trkpt>
      <trkpt lat="43.64591" lon="1.37808">
        <ele>148</ele>
        <time>2023-06-23T16:14:10Z</time>
      </trkpt>
      <trkpt lat="43.6459" lon="1.37811">
        <ele>148</ele>
        <time>2023-06-23T16:14:11Z</time>
      </trkpt>
      <trkpt lat="43.64588" lon="1.37815">
        <ele>148</ele>
        <time>2023-06-23T16:14:12Z</time>
      </trkpt>
      <trkpt lat="43.64588" lon="1.37816">
        <ele>148</ele>
        <time>2023-06-23T16:14:13Z</time>
      </trkpt>
      <trkpt lat="43.64586" lon="1.37819">
        <ele>148</ele>
        <time>2023-06-23T16:14:14Z</time>
      </trkpt>
      <trkpt lat="43.64585" lon="1.37822">
        <ele>148</ele>
        <time>2023-06-23T16:14:15Z</time>
      </trkpt>
      <trkpt lat="43.64584" lon="1.37825">
        <ele>148</ele>
        <time>2023-06-23T16:14:16Z</time>
      </trkpt>
      <trkpt lat="43.64583" lon="1.37829">
        <ele>148</ele>
        <time>2023-06-23T16:14:17Z</time>
      </trkpt>
      <trkpt lat="43.64582" lon="1.37832">
        <ele>148</ele>
        <time>2023-06-23T16:14:18Z</time>
      </trkpt>
      <trkpt lat="43.6458" lon="1.37834">
        <ele>149</ele>
        <time>2023-06-23T16:14:19Z</time>
      </trkpt>
      <trkpt lat="43.64579" lon="1.37837">
        <ele>149</ele>
        <time>2023-06-23T16:14:20Z</time>
      </trkpt>
      <trkpt lat="43.64577" lon="1.37839">
        <ele>149</ele>
        <time>2023-06-23T16:14:21Z</time>
      </trkpt>
      <trkpt lat="43.64574" lon="1.37841">
        <ele>149</ele>
        <time>2023-06-23T16:14:22Z</time>
      </trkpt>
      <trkpt lat="43.64572" lon="1.37843">
        <ele>149</ele>
        <time>2023-06-23T16:14:23Z</time>
      </trkpt>
      <trkpt lat="43.64566" lon="1.37844">
        <ele>149</ele>
        <time>2023-06-23T16:14:24Z</time>
      </trkpt>
      <trkpt lat="43.64566" lon="1.37844">
        <ele>149</ele>
        <time>2023-06-23T16:14:25Z</time>
      </trkpt>
      <trkpt lat="43.64563" lon="1.37844">
        <ele>149</ele>
        <time>2023-06-23T16:14:26Z</time>
      </trkpt>
      <trkpt lat="43.6456" lon="1.37844">
        <ele>149</ele>
        <time>2023-06-23T16:14:27Z</time>
      </trkpt>
      <trkpt lat="43.64556" lon="1.37842">
        <ele>149</ele>
        <time>2023-06-23T16:14:28Z</time>
      </trkpt>
      <trkpt lat="43.64555" lon="1.37841">
        <ele>149</ele>
        <time>2023-06-23T16:14:29Z</time>
      </trkpt>
      <trkpt lat="43.64552" lon="1.3784">
        <ele>149</ele>
        <time>2023-06-23T16:14:30Z</time>
      </trkpt>
      <trkpt lat="43.64549" lon="1.37838">
        <ele>149</ele>
        <time>2023-06-23T16:14:31Z</time>
      </trkpt>
      <trkpt lat="43.64547" lon="1.37836">
        <ele>149</ele>
        <time>2023-06-23T16:14:32Z</time>
      </trkpt>
      <trkpt lat="43.64545" lon="1.37834">
        <ele>149</ele>
        <time>2023-06-23T16:14:33Z</time>
      </trkpt>
      <trkpt lat="43.64542" lon="1.37833">
        <ele>149</ele>
        <time>2023-06-23T16:14:34Z</time>
      </trkpt>
      <trkpt lat="43.6454" lon="1.37831">
        <ele>149</ele>
        <time>2023-06-23T16:14:35Z</time>
      </trkpt>
      <trkpt lat="43.64537" lon="1.37829">
        <ele>149</ele>
        <time>2023-06-23T16:14:36Z</time>
      </trkpt>
      <trkpt lat="43.64535" lon="1.37828">
        <ele>149</ele>
        <time>2023-06-23T16:14:37Z</time>
      </trkpt>
      <trkpt lat="43.64532" lon="1.37828">
        <ele>149</ele>
        <time>2023-06-23T16:14:38Z</time>
      </trkpt>
      <trkpt lat="43.6453" lon="1.37827">
        <ele>149</ele>
        <time>2023-06-23T16:14:39Z</time>
      </trkpt>
      <trkpt lat="43.64527" lon="1.37826">
        <ele>149</ele>
        <time>2023-06-23T16:14:40Z</time>
      </trkpt>
      <trkpt lat="43.64524" lon="1.37825">
        <ele>149</ele>
        <time>2023-06-23T16:14:41Z</time>
      </trkpt>
      <trkpt lat="43.64523" lon="1.37824">
        <ele>149</ele>
        <time>2023-06-23T16:14:42Z</time>
      </trkpt>
      <trkpt lat="43.64518" lon="1.37822">
        <ele>149</ele>
        <time>2023-06-23T16:14:43Z</time>
      </trkpt>
      <trkpt lat="43.64518" lon="1.37822">
        <ele>149</ele>
        <time>2023-06-23T16:14:44Z</time>
      </trkpt>
      <trkpt lat="43.64516" lon="1.37821">
        <ele>149</ele>
        <time>2023-06-23T16:14:45Z</time>
      </trkpt>
      <trkpt lat="43.64513" lon="1.37819">
        <ele>149</ele>
        <time>2023-06-23T16:14:46Z</time>
      </trkpt>
      <trkpt lat="43.64511" lon="1.37818">
        <ele>149</ele>
        <time>2023-06-23T16:14:47Z</time>
      </trkpt>
      <trkpt lat="43.64509" lon="1.37817">
        <ele>149</ele>
        <time>2023-06-23T16:14:48Z</time>
      </trkpt>
      <trkpt lat="43.64506" lon="1.37816">
        <ele>149</ele>
        <time>2023-06-23T16:14:49Z</time>
      </trkpt>
      <trkpt lat="43.64503" lon="1.37815">
        <ele>149</ele>
        <time>2023-06-23T16:14:50Z</time>
      </trkpt>
      <trkpt lat="43.64502" lon="1.37814">
        <ele>149</ele>
        <time>2023-06-23T16:14:51Z</time>
      </trkpt>
      <trkpt lat="43.645" lon="1.37813">
        <ele>149</ele>
        <time>2023-06-23T16:14:52Z</time>
      </trkpt>
      <trkpt lat="43.64498" lon="1.37812">
        <ele>149</ele>
        <time>2023-06-23T16:14:53Z</time>
      </trkpt>
      <trkpt lat="43.64496" lon="1.37811">
        <ele>149</ele>
        <time>2023-06-23T16:14:54Z</time>
      </trkpt>
      <trkpt lat="43.64493" lon="1.37809">
        <ele>149</ele>
        <time>2023-06-23T16:14:55Z</time>
      </trkpt>
      <trkpt lat="43.64491" lon="1.37807">
        <ele>150</ele>
        <time>2023-06-23T16:14:56Z</time>
      </trkpt>
      <trkpt lat="43.64489" lon="1.37806">
        <ele>150</ele>
        <time>2023-06-23T16:14:57Z</time>
      </trkpt>
      <trkpt lat="43.64487" lon="1.37805">
        <ele>149</ele>
        <time>2023-06-23T16:14:58Z</time>
      </trkpt>
      <trkpt lat="43.64484" lon="1.37805">
        <ele>149</ele>
        <time>2023-06-23T16:14:59Z</time>
      </trkpt>
      <trkpt lat="43.64483" lon="1.37806">
        <ele>149</ele>
        <time>2023-06-23T16:15:00Z</time>
      </trkpt>
      <trkpt lat="43.64481" lon="1.37806">
        <ele>149</ele>
        <time>2023-06-23T16:15:01Z</time>
      </trkpt>
      <trkpt lat="43.64479" lon="1.37807">
        <ele>149</ele>
        <time>2023-06-23T16:15:02Z</time>
      </trkpt>
      <trkpt lat="43.64479" lon="1.37807">
        <ele>149</ele>
        <time>2023-06-23T16:15:03Z</time>
      </trkpt>
      <trkpt lat="43.64475" lon="1.37808">
        <ele>149</ele>
        <time>2023-06-23T16:15:04Z</time>
      </trkpt>
      <trkpt lat="43.64474" lon="1.37811">
        <ele>149</ele>
        <time>2023-06-23T16:15:05Z</time>
      </trkpt>
      <trkpt lat="43.64472" lon="1.37814">
        <ele>150</ele>
        <time>2023-06-23T16:15:06Z</time>
      </trkpt>
      <trkpt lat="43.64471" lon="1.37817">
        <ele>150</ele>
        <time>2023-06-23T16:15:07Z</time>
      </trkpt>
      <trkpt lat="43.6447" lon="1.37819">
        <ele>150</ele>
        <time>2023-06-23T16:15:08Z</time>
      </trkpt>
      <trkpt lat="43.6447" lon="1.37822">
        <ele>150</ele>
        <time>2023-06-23T16:15:09Z</time>
      </trkpt>
      <trkpt lat="43.64469" lon="1.37825">
        <ele>150</ele>
        <time>2023-06-23T16:15:10Z</time>
      </trkpt>
      <trkpt lat="43.64468" lon="1.37828">
        <ele>151</ele>
        <time>2023-06-23T16:15:11Z</time>
      </trkpt>
      <trkpt lat="43.64468" lon="1.37831">
        <ele>151</ele>
        <time>2023-06-23T16:15:12Z</time>
      </trkpt>
      <trkpt lat="43.64467" lon="1.37834">
        <ele>151</ele>
        <time>2023-06-23T16:15:13Z</time>
      </trkpt>
      <trkpt lat="43.64466" lon="1.37837">
        <ele>151</ele>
        <time>2023-06-23T16:15:14Z</time>
      </trkpt>
      <trkpt lat="43.64465" lon="1.3784">
        <ele>151</ele>
        <time>2023-06-23T16:15:15Z</time>
      </trkpt>
      <trkpt lat="43.64464" lon="1.37843">
        <ele>151</ele>
        <time>2023-06-23T16:15:16Z</time>
      </trkpt>
      <trkpt lat="43.64463" lon="1.37846">
        <ele>150</ele>
        <time>2023-06-23T16:15:17Z</time>
      </trkpt>
      <trkpt lat="43.64461" lon="1.37852">
        <ele>150</ele>
        <time>2023-06-23T16:15:18Z</time>
      </trkpt>
      <trkpt lat="43.64461" lon="1.37852">
        <ele>150</ele>
        <time>2023-06-23T16:15:19Z</time>
      </trkpt>
      <trkpt lat="43.6446" lon="1.37855">
        <ele>151</ele>
        <time>2023-06-23T16:15:20Z</time>
      </trkpt>
      <trkpt lat="43.6446" lon="1.37855">
        <ele>151</ele>
        <time>2023-06-23T16:15:21Z</time>
      </trkpt>
      <trkpt lat="43.64462" lon="1.37857">
        <ele>151</ele>
        <time>2023-06-23T16:15:22Z</time>
      </trkpt>
      <trkpt lat="43.64463" lon="1.3786">
        <ele>151</ele>
        <time>2023-06-23T16:15:23Z</time>
      </trkpt>
      <trkpt lat="43.64465" lon="1.37862">
        <ele>151</ele>
        <time>2023-06-23T16:15:24Z</time>
      </trkpt>
      <trkpt lat="43.64466" lon="1.37865">
        <ele>151</ele>
        <time>2023-06-23T16:15:25Z</time>
      </trkpt>
      <trkpt lat="43.64468" lon="1.37868">
        <ele>151</ele>
        <time>2023-06-23T16:15:26Z</time>
      </trkpt>
      <trkpt lat="43.64469" lon="1.37871">
        <ele>150</ele>
        <time>2023-06-23T16:15:27Z</time>
      </trkpt>
      <trkpt lat="43.64471" lon="1.37874">
        <ele>150</ele>
        <time>2023-06-23T16:15:28Z</time>
      </trkpt>
      <trkpt lat="43.64472" lon="1.37877">
        <ele>150</ele>
        <time>2023-06-23T16:15:29Z</time>
      </trkpt>
      <trkpt lat="43.64472" lon="1.37881">
        <ele>150</ele>
        <time>2023-06-23T16:15:30Z</time>
      </trkpt>
      <trkpt lat="43.64471" lon="1.37885">
        <ele>150</ele>
        <time>2023-06-23T16:15:31Z</time>
      </trkpt>
      <trkpt lat="43.64469" lon="1.37888">
        <ele>149</ele>
        <time>2023-06-23T16:15:32Z</time>
      </trkpt>
      <trkpt lat="43.64468" lon="1.37892">
        <ele>149</ele>
        <time>2023-06-23T16:15:33Z</time>
      </trkpt>
      <trkpt lat="43.64467" lon="1.37895">
        <ele>149</ele>
        <time>2023-06-23T16:15:34Z</time>
      </trkpt>
      <trkpt lat="43.64466" lon="1.37899">
        <ele>149</ele>
        <time>2023-06-23T16:15:35Z</time>
      </trkpt>
      <trkpt lat="43.64464" lon="1.37904">
        <ele>149</ele>
        <time>2023-06-23T16:15:36Z</time>
      </trkpt>
      <trkpt lat="43.64464" lon="1.37905">
        <ele>149</ele>
        <time>2023-06-23T16:15:37Z</time>
      </trkpt>
      <trkpt lat="43.64463" lon="1.37909">
        <ele>149</ele>
        <time>2023-06-23T16:15:38Z</time>
      </trkpt>
      <trkpt lat="43.64463" lon="1.37912">
        <ele>149</ele>
        <time>2023-06-23T16:15:39Z</time>
      </trkpt>
      <trkpt lat="43.64463" lon="1.3792">
        <ele>149</ele>
        <time>2023-06-23T16:15:40Z</time>
      </trkpt>
      <trkpt lat="43.64463" lon="1.3792">
        <ele>149</ele>
        <time>2023-06-23T16:15:41Z</time>
      </trkpt>
      <trkpt lat="43.64463" lon="1.37923">
        <ele>150</ele>
        <time>2023-06-23T16:15:42Z</time>
      </trkpt>
      <trkpt lat="43.64463" lon="1.37927">
        <ele>150</ele>
        <time>2023-06-23T16:15:43Z</time>
      </trkpt>
      <trkpt lat="43.64464" lon="1.3793">
        <ele>149</ele>
        <time>2023-06-23T16:15:44Z</time>
      </trkpt>
      <trkpt lat="43.64464" lon="1.37933">
        <ele>149</ele>
        <time>2023-06-23T16:15:45Z</time>
      </trkpt>
      <trkpt lat="43.64466" lon="1.37937">
        <ele>149</ele>
        <time>2023-06-23T16:15:46Z</time>
      </trkpt>
      <trkpt lat="43.64467" lon="1.37939">
        <ele>149</ele>
        <time>2023-06-23T16:15:47Z</time>
      </trkpt>
      <trkpt lat="43.64469" lon="1.37943">
        <ele>149</ele>
        <time>2023-06-23T16:15:48Z</time>
      </trkpt>
      <trkpt lat="43.64469" lon="1.37944">
        <ele>149</ele>
        <time>2023-06-23T16:15:49Z</time>
      </trkpt>
      <trkpt lat="43.6447" lon="1.37947">
        <ele>149</ele>
        <time>2023-06-23T16:15:50Z</time>
      </trkpt>
      <trkpt lat="43.64472" lon="1.37949">
        <ele>149</ele>
        <time>2023-06-23T16:15:51Z</time>
      </trkpt>
      <trkpt lat="43.64473" lon="1.37952">
        <ele>149</ele>
        <time>2023-06-23T16:15:52Z</time>
      </trkpt>
      <trkpt lat="43.64474" lon="1.37954">
        <ele>149</ele>
        <time>2023-06-23T16:15:53Z</time>
      </trkpt>
      <trkpt lat="43.64476" lon="1.37956">
        <ele>149</ele>
        <time>2023-06-23T16:15:54Z</time>
      </trkpt>
      <trkpt lat="43.64477" lon="1.37956">
        <ele>150</ele>
        <time>2023-06-23T16:15:55Z</time>
      </trkpt>
      <trkpt lat="43.6448" lon="1.37956">
        <ele>150</ele>
        <time>2023-06-23T16:15:56Z</time>
      </trkpt>
      <trkpt lat="43.64482" lon="1.37957">
        <ele>149</ele>
        <time>2023-06-23T16:15:57Z</time>
      </trkpt>
      <trkpt lat="43.64484" lon="1.37958">
        <ele>149</ele>
        <time>2023-06-23T16:15:58Z</time>
      </trkpt>
      <trkpt lat="43.64488" lon="1.37961">
        <ele>149</ele>
        <time>2023-06-23T16:15:59Z</time>
      </trkpt>
      <trkpt lat="43.64488" lon="1.37961">
        <ele>149</ele>
        <time>2023-06-23T16:16:00Z</time>
      </trkpt>
      <trkpt lat="43.64491" lon="1.37962">
        <ele>149</ele>
        <time>2023-06-23T16:16:01Z</time>
      </trkpt>
      <trkpt lat="43.64494" lon="1.37963">
        <ele>149</ele>
        <time>2023-06-23T16:16:02Z</time>
      </trkpt>
      <trkpt lat="43.64497" lon="1.37964">
        <ele>149</ele>
        <time>2023-06-23T16:16:03Z</time>
      </trkpt>
      <trkpt lat="43.64499" lon="1.37966">
        <ele>149</ele>
        <time>2023-06-23T16:16:04Z</time>
      </trkpt>
      <trkpt lat="43.64501" lon="1.37967">
        <ele>149</ele>
        <time>2023-06-23T16:16:05Z</time>
      </trkpt>
      <trkpt lat="43.64504" lon="1.37968">
        <ele>149</ele>
        <time>2023-06-23T16:16:06Z</time>
      </trkpt>
      <trkpt lat="43.64506" lon="1.37969">
        <ele>149</ele>
        <time>2023-06-23T16:16:07Z</time>
      </trkpt>
      <trkpt lat="43.64509" lon="1.3797">
        <ele>149</ele>
        <time>2023-06-23T16:16:08Z</time>
      </trkpt>
      <trkpt lat="43.64511" lon="1.37971">
        <ele>149</ele>
        <time>2023-06-23T16:16:09Z</time>
      </trkpt>
      <trkpt lat="43.64513" lon="1.37972">
        <ele>149</ele>
        <time>2023-06-23T16:16:10Z</time>
      </trkpt>
      <trkpt lat="43.64516" lon="1.37974">
        <ele>149</ele>
        <time>2023-06-23T16:16:11Z</time>
      </trkpt>
      <trkpt lat="43.6452" lon="1.37976">
        <ele>149</ele>
        <time>2023-06-23T16:16:12Z</time>
      </trkpt>
      <trkpt lat="43.64521" lon="1.37977">
        <ele>149</ele>
        <time>2023-06-23T16:16:13Z</time>
      </trkpt>
      <trkpt lat="43.64523" lon="1.37978">
        <ele>149</ele>
        <time>2023-06-23T16:16:14Z</time>
      </trkpt>
      <trkpt lat="43.64526" lon="1.37979">
        <ele>149</ele>
        <time>2023-06-23T16:16:15Z</time>
      </trkpt>
      <trkpt lat="43.64528" lon="1.3798">
        <ele>149</ele>
        <time>2023-06-23T16:16:16Z</time>
      </trkpt>
      <trkpt lat="43.6453" lon="1.37982">
        <ele>149</ele>
        <time>2023-06-23T16:16:17Z</time>
      </trkpt>
      <trkpt lat="43.64532" lon="1.37983">
        <ele>149</ele>
        <time>2023-06-23T16:16:18Z</time>
      </trkpt>
      <trkpt lat="43.64534" lon="1.37983">
        <ele>149</ele>
        <time>2023-06-23T16:16:19Z</time>
      </trkpt>
      <trkpt lat="43.64536" lon="1.37984">
        <ele>149</ele>
        <time>2023-06-23T16:16:20Z</time>
      </trkpt>
      <trkpt lat="43.64539" lon="1.37984">
        <ele>149</ele>
        <time>2023-06-23T16:16:21Z</time>
      </trkpt>
      <trkpt lat="43.64542" lon="1.37983">
        <ele>149</ele>
        <time>2023-06-23T16:16:22Z</time>
      </trkpt>
      <trkpt lat="43.64544" lon="1.37983">
        <ele>149</ele>
        <time>2023-06-23T16:16:23Z</time>
      </trkpt>
      <trkpt lat="43.64547" lon="1.37981">
        <ele>149</ele>
        <time>2023-06-23T16:16:24Z</time>
      </trkpt>
      <trkpt lat="43.64549" lon="1.3798">
        <ele>150</ele>
        <time>2023-06-23T16:16:25Z</time>
      </trkpt>
      <trkpt lat="43.64551" lon="1.37979">
        <ele>150</ele>
        <time>2023-06-23T16:16:26Z</time>
      </trkpt>
      <trkpt lat="43.64554" lon="1.37977">
        <ele>150</ele>
        <time>2023-06-23T16:16:27Z</time>
      </trkpt>
      <trkpt lat="43.64556" lon="1.37975">
        <ele>150</ele>
        <time>2023-06-23T16:16:28Z</time>
      </trkpt>
      <trkpt lat="43.64558" lon="1.37973">
        <ele>150</ele>
        <time>2023-06-23T16:16:29Z</time>
      </trkpt>
      <trkpt lat="43.6456" lon="1.37971">
        <ele>150</ele>
        <time>2023-06-23T16:16:30Z</time>
      </trkpt>
      <trkpt lat="43.64561" lon="1.37968">
        <ele>149</ele>
        <time>2023-06-23T16:16:31Z</time>
      </trkpt>
      <trkpt lat="43.64563" lon="1.37966">
        <ele>149</ele>
        <time>2023-06-23T16:16:32Z</time>
      </trkpt>
      <trkpt lat="43.64566" lon="1.37964">
        <ele>149</ele>
        <time>2023-06-23T16:16:33Z</time>
      </trkpt>
      <trkpt lat="43.64567" lon="1.37961">
        <ele>150</ele>
        <time>2023-06-23T16:16:34Z</time>
      </trkpt>
      <trkpt lat="43.64569" lon="1.37959">
        <ele>150</ele>
        <time>2023-06-23T16:16:35Z</time>
      </trkpt>
      <trkpt lat="43.64571" lon="1.37955">
        <ele>150</ele>
        <time>2023-06-23T16:16:36Z</time>
      </trkpt>
      <trkpt lat="43.64572" lon="1.37953">
        <ele>150</ele>
        <time>2023-06-23T16:16:37Z</time>
      </trkpt>
      <trkpt lat="43.64573" lon="1.3795">
        <ele>150</ele>
        <time>2023-06-23T16:16:38Z</time>
      </trkpt>
      <trkpt lat="43.64573" lon="1.37947">
        <ele>150</ele>
        <time>2023-06-23T16:16:39Z</time>
      </trkpt>
      <trkpt lat="43.64574" lon="1.37944">
        <ele>150</ele>
        <time>2023-06-23T16:16:40Z</time>
      </trkpt>
      <trkpt lat="43.64574" lon="1.37941">
        <ele>149</ele>
        <time>2023-06-23T16:16:41Z</time>
      </trkpt>
      <trkpt lat="43.64574" lon="1.37937">
        <ele>149</ele>
        <time>2023-06-23T16:16:42Z</time>
      </trkpt>
      <trkpt lat="43.64574" lon="1.37934">
        <ele>149</ele>
        <time>2023-06-23T16:16:43Z</time>
      </trkpt>
      <trkpt lat="43.64573" lon="1.3793">
        <ele>149</ele>
        <time>2023-06-23T16:16:44Z</time>
      </trkpt>
      <trkpt lat="43.64572" lon="1.37928">
        <ele>149</ele>
        <time>2023-06-23T16:16:45Z</time>
      </trkpt>
      <trkpt lat="43.64572" lon="1.37928">
        <ele>149</ele>
        <time>2023-06-23T16:16:46Z</time>
      </trkpt>
      <trkpt lat="43.6457" lon="1.37925">
        <ele>149</ele>
        <time>2023-06-23T16:16:47Z</time>
      </trkpt>
      <trkpt lat="43.64569" lon="1.37923">
        <ele>149</ele>
        <time>2023-06-23T16:16:48Z</time>
      </trkpt>
      <trkpt lat="43.64567" lon="1.3792">
        <ele>149</ele>
        <time>2023-06-23T16:16:49Z</time>
      </trkpt>
      <trkpt lat="43.64562" lon="1.37913">
        <ele>149</ele>
        <time>2023-06-23T16:16:50Z</time>
      </trkpt>
      <trkpt lat="43.64559" lon="1.37911">
        <ele>149</ele>
        <time>2023-06-23T16:16:51Z</time>
      </trkpt>
      <trkpt lat="43.64556" lon="1.37909">
        <ele>149</ele>
        <time>2023-06-23T16:16:52Z</time>
      </trkpt>
      <trkpt lat="43.64553" lon="1.37908">
        <ele>149</ele>
        <time>2023-06-23T16:16:53Z</time>
      </trkpt>
      <trkpt lat="43.64548" lon="1.37907">
        <ele>149</ele>
        <time>2023-06-23T16:16:54Z</time>
      </trkpt>
      <trkpt lat="43.64546" lon="1.37907">
        <ele>149</ele>
        <time>2023-06-23T16:16:55Z</time>
      </trkpt>
      <trkpt lat="43.64542" lon="1.37904">
        <ele>150</ele>
        <time>2023-06-23T16:16:56Z</time>
      </trkpt>
      <trkpt lat="43.64542" lon="1.37904">
        <ele>150</ele>
        <time>2023-06-23T16:16:57Z</time>
      </trkpt>
      <trkpt lat="43.6454" lon="1.37903">
        <ele>148</ele>
        <time>2023-06-23T16:16:58Z</time>
      </trkpt>
      <trkpt lat="43.64538" lon="1.37901">
        <ele>148</ele>
        <time>2023-06-23T16:16:59Z</time>
      </trkpt>
      <trkpt lat="43.64536" lon="1.379">
        <ele>148</ele>
        <time>2023-06-23T16:17:00Z</time>
      </trkpt>
      <trkpt lat="43.64533" lon="1.37898">
        <ele>149</ele>
        <time>2023-06-23T16:17:01Z</time>
      </trkpt>
      <trkpt lat="43.64531" lon="1.37896">
        <ele>149</ele>
        <time>2023-06-23T16:17:02Z</time>
      </trkpt>
      <trkpt lat="43.64527" lon="1.37894">
        <ele>149</ele>
        <time>2023-06-23T16:17:03Z</time>
      </trkpt>
      <trkpt lat="43.64527" lon="1.37893">
        <ele>149</ele>
        <time>2023-06-23T16:17:04Z</time>
      </trkpt>
      <trkpt lat="43.64524" lon="1.37892">
        <ele>149</ele>
        <time>2023-06-23T16:17:05Z</time>
      </trkpt>
      <trkpt lat="43.64522" lon="1.3789">
        <ele>149</ele>
        <time>2023-06-23T16:17:06Z</time>
      </trkpt>
      <trkpt lat="43.6452" lon="1.37888">
        <ele>149</ele>
        <time>2023-06-23T16:17:07Z</time>
      </trkpt>
      <trkpt lat="43.64518" lon="1.37887">
        <ele>149</ele>
        <time>2023-06-23T16:17:08Z</time>
      </trkpt>
      <trkpt lat="43.64515" lon="1.37885">
        <ele>149</ele>
        <time>2023-06-23T16:17:09Z</time>
      </trkpt>
      <trkpt lat="43.64512" lon="1.37883">
        <ele>149</ele>
        <time>2023-06-23T16:17:10Z</time>
      </trkpt>
      <trkpt lat="43.6451" lon="1.37883">
        <ele>149</ele>
        <time>2023-06-23T16:17:11Z</time>
      </trkpt>
      <trkpt lat="43.64508" lon="1.37881">
        <ele>150</ele>
        <time>2023-06-23T16:17:12Z</time>
      </trkpt>
      <trkpt lat="43.64506" lon="1.3788">
        <ele>150</ele>
        <time>2023-06-23T16:17:13Z</time>
      </trkpt>
      <trkpt lat="43.64502" lon="1.37878">
        <ele>150</ele>
        <time>2023-06-23T16:17:14Z</time>
      </trkpt>
      <trkpt lat="43.645" lon="1.37877">
        <ele>149</ele>
        <time>2023-06-23T16:17:15Z</time>
      </trkpt>
      <trkpt lat="43.64498" lon="1.37875">
        <ele>149</ele>
        <time>2023-06-23T16:17:16Z</time>
      </trkpt>
      <trkpt lat="43.64495" lon="1.37874">
        <ele>149</ele>
        <time>2023-06-23T16:17:17Z</time>
      </trkpt>
      <trkpt lat="43.64493" lon="1.37873">
        <ele>149</ele>
        <time>2023-06-23T16:17:18Z</time>
      </trkpt>
      <trkpt lat="43.6449" lon="1.37872">
        <ele>149</ele>
        <time>2023-06-23T16:17:19Z</time>
      </trkpt>
      <trkpt lat="43.64488" lon="1.37872">
        <ele>149</ele>
        <time>2023-06-23T16:17:20Z</time>
      </trkpt>
      <trkpt lat="43.64485" lon="1.37872">
        <ele>149</ele>
        <time>2023-06-23T16:17:21Z</time>
      </trkpt>
      <trkpt lat="43.64483" lon="1.37873">
        <ele>149</ele>
        <time>2023-06-23T16:17:22Z</time>
      </trkpt>
      <trkpt lat="43.6448" lon="1.37873">
        <ele>149</ele>
        <time>2023-06-23T16:17:23Z</time>
      </trkpt>
      <trkpt lat="43.64478" lon="1.37874">
        <ele>150</ele>
        <time>2023-06-23T16:17:24Z</time>
      </trkpt>
      <trkpt lat="43.64476" lon="1.37875">
        <ele>150</ele>
        <time>2023-06-23T16:17:25Z</time>
      </trkpt>
      <trkpt lat="43.64473" lon="1.37877">
        <ele>150</ele>
        <time>2023-06-23T16:17:26Z</time>
      </trkpt>
      <trkpt lat="43.64471" lon="1.37879">
        <ele>149</ele>
        <time>2023-06-23T16:17:27Z</time>
      </trkpt>
      <trkpt lat="43.64469" lon="1.37881">
        <ele>149</ele>
        <time>2023-06-23T16:17:28Z</time>
      </trkpt>
      <trkpt lat="43.64468" lon="1.37883">
        <ele>149</ele>
        <time>2023-06-23T16:17:29Z</time>
      </trkpt>
      <trkpt lat="43.64466" lon="1.37885">
        <ele>149</ele>
        <time>2023-06-23T16:17:30Z</time>
      </trkpt>
      <trkpt lat="43.64464" lon="1.37887">
        <ele>149</ele>
        <time>2023-06-23T16:17:31Z</time>
      </trkpt>
      <trkpt lat="43.64463" lon="1.3789">
        <ele>149</ele>
        <time>2023-06-23T16:17:32Z</time>
      </trkpt>
      <trkpt lat="43.64462" lon="1.37893">
        <ele>149</ele>
        <time>2023-06-23T16:17:33Z</time>
      </trkpt>
      <trkpt lat="43.64459" lon="1.37899">
        <ele>149</ele>
        <time>2023-06-23T16:17:34Z</time>
      </trkpt>
      <trkpt lat="43.64459" lon="1.37899">
        <ele>149</ele>
        <time>2023-06-23T16:17:35Z</time>
      </trkpt>
      <trkpt lat="43.64459" lon="1.37902">
        <ele>149</ele>
        <time>2023-06-23T16:17:36Z</time>
      </trkpt>
      <trkpt lat="43.64458" lon="1.37905">
        <ele>149</ele>
        <time>2023-06-23T16:17:37Z</time>
      </trkpt>
      <trkpt lat="43.64458" lon="1.37909">
        <ele>149</ele>
        <time>2023-06-23T16:17:38Z</time>
      </trkpt>
      <trkpt lat="43.64457" lon="1.37912">
        <ele>149</ele>
        <time>2023-06-23T16:17:39Z</time>
      </trkpt>
      <trkpt lat="43.64457" lon="1.37915">
        <ele>149</ele>
        <time>2023-06-23T16:17:40Z</time>
      </trkpt>
      <trkpt lat="43.64458" lon="1.37918">
        <ele>149</ele>
        <time>2023-06-23T16:17:41Z</time>
      </trkpt>
      <trkpt lat="43.64458" lon="1.37922">
        <ele>149</ele>
        <time>2023-06-23T16:17:42Z</time>
      </trkpt>
      <trkpt lat="43.64459" lon="1.37925">
        <ele>149</ele>
        <time>2023-06-23T16:17:43Z</time>
      </trkpt>
      <trkpt lat="43.6446" lon="1.3793">
        <ele>150</ele>
        <time>2023-06-23T16:17:44Z</time>
      </trkpt>
      <trkpt lat="43.6446" lon="1.37931">
        <ele>150</ele>
        <time>2023-06-23T16:17:45Z</time>
      </trkpt>
      <trkpt lat="43.64462" lon="1.37934">
        <ele>150</ele>
        <time>2023-06-23T16:17:46Z</time>
      </trkpt>
      <trkpt lat="43.64463" lon="1.37938">
        <ele>150</ele>
        <time>2023-06-23T16:17:47Z</time>
      </trkpt>
      <trkpt lat="43.64464" lon="1.37941">
        <ele>149</ele>
        <time>2023-06-23T16:17:48Z</time>
      </trkpt>
      <trkpt lat="43.64466" lon="1.37944">
        <ele>149</ele>
        <time>2023-06-23T16:17:49Z</time>
      </trkpt>
      <trkpt lat="43.64467" lon="1.37946">
        <ele>149</ele>
        <time>2023-06-23T16:17:50Z</time>
      </trkpt>
      <trkpt lat="43.64469" lon="1.37948">
        <ele>149</ele>
        <time>2023-06-23T16:17:51Z</time>
      </trkpt>
      <trkpt lat="43.64471" lon="1.3795">
        <ele>149</ele>
        <time>2023-06-23T16:17:52Z</time>
      </trkpt>
      <trkpt lat="43.64473" lon="1.37952">
        <ele>150</ele>
        <time>2023-06-23T16:17:53Z</time>
      </trkpt>
      <trkpt lat="43.64476" lon="1.37954">
        <ele>150</ele>
        <time>2023-06-23T16:17:54Z</time>
      </trkpt>
      <trkpt lat="43.64478" lon="1.37954">
        <ele>150</ele>
        <time>2023-06-23T16:17:55Z</time>
      </trkpt>
      <trkpt lat="43.6448" lon="1.37956">
        <ele>150</ele>
        <time>2023-06-23T16:17:56Z</time>
      </trkpt>
      <trkpt lat="43.64483" lon="1.37957">
        <ele>149</ele>
        <time>2023-06-23T16:17:57Z</time>
      </trkpt>
      <trkpt lat="43.64486" lon="1.37959">
        <ele>149</ele>
        <time>2023-06-23T16:17:58Z</time>
      </trkpt>
      <trkpt lat="43.64488" lon="1.3796">
        <ele>149</ele>
        <time>2023-06-23T16:17:59Z</time>
      </trkpt>
      <trkpt lat="43.64491" lon="1.37961">
        <ele>149</ele>
        <time>2023-06-23T16:18:00Z</time>
      </trkpt>
      <trkpt lat="43.64493" lon="1.37963">
        <ele>149</ele>
        <time>2023-06-23T16:18:01Z</time>
      </trkpt>
      <trkpt lat="43.64498" lon="1.37965">
        <ele>150</ele>
        <time>2023-06-23T16:18:02Z</time>
      </trkpt>
      <trkpt lat="43.64499" lon="1.37966">
        <ele>150</ele>
        <time>2023-06-23T16:18:03Z</time>
      </trkpt>
      <trkpt lat="43.64502" lon="1.37967">
        <ele>150</ele>
        <time>2023-06-23T16:18:04Z</time>
      </trkpt>
      <trkpt lat="43.64504" lon="1.37969">
        <ele>150</ele>
        <time>2023-06-23T16:18:05Z</time>
      </trkpt>
      <trkpt lat="43.64509" lon="1.37971">
        <ele>150</ele>
        <time>2023-06-23T16:18:06Z</time>
      </trkpt>
      <trkpt lat="43.6451" lon="1.37972">
        <ele>150</ele>
        <time>2023-06-23T16:18:07Z</time>
      </trkpt>
      <trkpt lat="43.64513" lon="1.37974">
        <ele>150</ele>
        <time>2023-06-23T16:18:08Z</time>
      </trkpt>
      <trkpt lat="43.64515" lon="1.37975">
        <ele>150</ele>
        <time>2023-06-23T16:18:09Z</time>
      </trkpt>
      <trkpt lat="43.64518" lon="1.37976">
        <ele>150</ele>
        <time>2023-06-23T16:18:10Z</time>
      </trkpt>
      <trkpt lat="43.6452" lon="1.37977">
        <ele>150</ele>
        <time>2023-06-23T16:18:11Z</time>
      </trkpt>
      <trkpt lat="43.64525" lon="1.3798">
        <ele>150</ele>
        <time>2023-06-23T16:18:12Z</time>
      </trkpt>
      <trkpt lat="43.64525" lon="1.3798">
        <ele>150</ele>
        <time>2023-06-23T16:18:13Z</time>
      </trkpt>
      <trkpt lat="43.64528" lon="1.37981">
        <ele>149</ele>
        <time>2023-06-23T16:18:14Z</time>
      </trkpt>
      <trkpt lat="43.64531" lon="1.37982">
        <ele>149</ele>
        <time>2023-06-23T16:18:15Z</time>
      </trkpt>
      <trkpt lat="43.64533" lon="1.37982">
        <ele>148</ele>
        <time>2023-06-23T16:18:16Z</time>
      </trkpt>
      <trkpt lat="43.64536" lon="1.37983">
        <ele>149</ele>
        <time>2023-06-23T16:18:17Z</time>
      </trkpt>
      <trkpt lat="43.64539" lon="1.37983">
        <ele>149</ele>
        <time>2023-06-23T16:18:18Z</time>
      </trkpt>
      <trkpt lat="43.64542" lon="1.37983">
        <ele>149</ele>
        <time>2023-06-23T16:18:19Z</time>
      </trkpt>
      <trkpt lat="43.64546" lon="1.37982">
        <ele>149</ele>
        <time>2023-06-23T16:18:20Z</time>
      </trkpt>
      <trkpt lat="43.64547" lon="1.37982">
        <ele>149</ele>
        <time>2023-06-23T16:18:21Z</time>
      </trkpt>
      <trkpt lat="43.6455" lon="1.3798">
        <ele>149</ele>
        <time>2023-06-23T16:18:22Z</time>
      </trkpt>
      <trkpt lat="43.64553" lon="1.37979">
        <ele>149</ele>
        <time>2023-06-23T16:18:23Z</time>
      </trkpt>
      <trkpt lat="43.64555" lon="1.37977">
        <ele>149</ele>
        <time>2023-06-23T16:18:24Z</time>
      </trkpt>
      <trkpt lat="43.64558" lon="1.37975">
        <ele>149</ele>
        <time>2023-06-23T16:18:25Z</time>
      </trkpt>
      <trkpt lat="43.64561" lon="1.37973">
        <ele>149</ele>
        <time>2023-06-23T16:18:26Z</time>
      </trkpt>
      <trkpt lat="43.64563" lon="1.3797">
        <ele>149</ele>
        <time>2023-06-23T16:18:27Z</time>
      </trkpt>
      <trkpt lat="43.64565" lon="1.37968">
        <ele>150</ele>
        <time>2023-06-23T16:18:28Z</time>
      </trkpt>
      <trkpt lat="43.64567" lon="1.37965">
        <ele>150</ele>
        <time>2023-06-23T16:18:29Z</time>
      </trkpt>
      <trkpt lat="43.64568" lon="1.37962">
        <ele>150</ele>
        <time>2023-06-23T16:18:30Z</time>
      </trkpt>
      <trkpt lat="43.64569" lon="1.37958">
        <ele>150</ele>
        <time>2023-06-23T16:18:31Z</time>
      </trkpt>
      <trkpt lat="43.64571" lon="1.37955">
        <ele>150</ele>
        <time>2023-06-23T16:18:32Z</time>
      </trkpt>
      <trkpt lat="43.64571" lon="1.37951">
        <ele>150</ele>
        <time>2023-06-23T16:18:33Z</time>
      </trkpt>
      <trkpt lat="43.64572" lon="1.37947">
        <ele>150</ele>
        <time>2023-06-23T16:18:34Z</time>
      </trkpt>
      <trkpt lat="43.64571" lon="1.37943">
        <ele>149</ele>
        <time>2023-06-23T16:18:35Z</time>
      </trkpt>
      <trkpt lat="43.64571" lon="1.37939">
        <ele>149</ele>
        <time>2023-06-23T16:18:36Z</time>
      </trkpt>
      <trkpt lat="43.64571" lon="1.37933">
        <ele>149</ele>
        <time>2023-06-23T16:18:37Z</time>
      </trkpt>
      <trkpt lat="43.6457" lon="1.37932">
        <ele>149</ele>
        <time>2023-06-23T16:18:38Z</time>
      </trkpt>
      <trkpt lat="43.64569" lon="1.37928">
        <ele>149</ele>
        <time>2023-06-23T16:18:39Z</time>
      </trkpt>
      <trkpt lat="43.64568" lon="1.37925">
        <ele>149</ele>
        <time>2023-06-23T16:18:40Z</time>
      </trkpt>
      <trkpt lat="43.64566" lon="1.3792">
        <ele>149</ele>
        <time>2023-06-23T16:18:41Z</time>
      </trkpt>
      <trkpt lat="43.64565" lon="1.37918">
        <ele>149</ele>
        <time>2023-06-23T16:18:42Z</time>
      </trkpt>
      <trkpt lat="43.64563" lon="1.37915">
        <ele>149</ele>
        <time>2023-06-23T16:18:43Z</time>
      </trkpt>
      <trkpt lat="43.64559" lon="1.3791">
        <ele>149</ele>
        <time>2023-06-23T16:18:44Z</time>
      </trkpt>
      <trkpt lat="43.64558" lon="1.37909">
        <ele>149</ele>
        <time>2023-06-23T16:18:45Z</time>
      </trkpt>
      <trkpt lat="43.64556" lon="1.37907">
        <ele>149</ele>
        <time>2023-06-23T16:18:46Z</time>
      </trkpt>
      <trkpt lat="43.64552" lon="1.37905">
        <ele>150</ele>
        <time>2023-06-23T16:18:47Z</time>
      </trkpt>
      <trkpt lat="43.6455" lon="1.37903">
        <ele>150</ele>
        <time>2023-06-23T16:18:48Z</time>
      </trkpt>
      <trkpt lat="43.64547" lon="1.37902">
        <ele>150</ele>
        <time>2023-06-23T16:18:49Z</time>
      </trkpt>
      <trkpt lat="43.64544" lon="1.379">
        <ele>150</ele>
        <time>2023-06-23T16:18:50Z</time>
      </trkpt>
      <trkpt lat="43.64542" lon="1.37899">
        <ele>150</ele>
        <time>2023-06-23T16:18:51Z</time>
      </trkpt>
      <trkpt lat="43.64539" lon="1.37897">
        <ele>150</ele>
        <time>2023-06-23T16:18:52Z</time>
      </trkpt>
      <trkpt lat="43.64536" lon="1.37896">
        <ele>150</ele>
        <time>2023-06-23T16:18:53Z</time>
      </trkpt>
      <trkpt lat="43.64532" lon="1.37894">
        <ele>149</ele>
        <time>2023-06-23T16:18:54Z</time>
      </trkpt>
      <trkpt lat="43.64531" lon="1.37893">
        <ele>149</ele>
        <time>2023-06-23T16:18:55Z</time>
      </trkpt>
      <trkpt lat="43.64528" lon="1.37891">
        <ele>149</ele>
        <time>2023-06-23T16:18:56Z</time>
      </trkpt>
      <trkpt lat="43.64526" lon="1.3789">
        <ele>149</ele>
        <time>2023-06-23T16:18:57Z</time>
      </trkpt>
      <trkpt lat="43.64523" lon="1.37888">
        <ele>149</ele>
        <time>2023-06-23T16:18:58Z</time>
      </trkpt>
      <trkpt lat="43.6452" lon="1.37886">
        <ele>149</ele>
        <time>2023-06-23T16:18:59Z</time>
      </trkpt>
      <trkpt lat="43.64518" lon="1.37885">
        <ele>149</ele>
        <time>2023-06-23T16:19:00Z</time>
      </trkpt>
      <trkpt lat="43.64515" lon="1.37884">
        <ele>149</ele>
        <time>2023-06-23T16:19:01Z</time>
      </trkpt>
      <trkpt lat="43.64512" lon="1.37882">
        <ele>149</ele>
        <time>2023-06-23T16:19:02Z</time>
      </trkpt>
      <trkpt lat="43.6451" lon="1.37881">
        <ele>149</ele>
        <time>2023-06-23T16:19:03Z</time>
      </trkpt>
      <trkpt lat="43.64507" lon="1.37879">
        <ele>149</ele>
        <time>2023-06-23T16:19:04Z</time>
      </trkpt>
      <trkpt lat="43.64505" lon="1.37877">
        <ele>149</ele>
        <time>2023-06-23T16:19:05Z</time>
      </trkpt>
      <trkpt lat="43.64502" lon="1.37876">
        <ele>149</ele>
        <time>2023-06-23T16:19:06Z</time>
      </trkpt>
      <trkpt lat="43.64499" lon="1.37875">
        <ele>149</ele>
        <time>2023-06-23T16:19:07Z</time>
      </trkpt>
      <trkpt lat="43.64497" lon="1.37874">
        <ele>149</ele>
        <time>2023-06-23T16:19:08Z</time>
      </trkpt>
      <trkpt lat="43.64493" lon="1.37873">
        <ele>149</ele>
        <time>2023-06-23T16:19:09Z</time>
      </trkpt>
      <trkpt lat="43.64491" lon="1.37873">
        <ele>149</ele>
        <time>2023-06-23T16:19:10Z</time>
      </trkpt>
      <trkpt lat="43.64487" lon="1.37873">
        <ele>149</ele>
        <time>2023-06-23T16:19:11Z</time>
      </trkpt>
      <trkpt lat="43.64486" lon="1.37873">
        <ele>149</ele>
        <time>2023-06-23T16:19:12Z</time>
      </trkpt>
      <trkpt lat="43.64483" lon="1.37873">
        <ele>149</ele>
        <time>2023-06-23T16:19:13Z</time>
      </trkpt>
      <trkpt lat="43.64481" lon="1.37874">
        <ele>149</ele>
        <time>2023-06-23T16:19:14Z</time>
      </trkpt>
      <trkpt lat="43.64478" lon="1.37875">
        <ele>149</ele>
        <time>2023-06-23T16:19:15Z</time>
      </trkpt>
      <trkpt lat="43.64475" lon="1.37876">
        <ele>149</ele>
        <time>2023-06-23T16:19:16Z</time>
      </trkpt>
      <trkpt lat="43.64473" lon="1.37878">
        <ele>149</ele>
        <time>2023-06-23T16:19:17Z</time>
      </trkpt>
      <trkpt lat="43.64469" lon="1.3788">
        <ele>149</ele>
        <time>2023-06-23T16:19:18Z</time>
      </trkpt>
      <trkpt lat="43.64468" lon="1.37881">
        <ele>149</ele>
        <time>2023-06-23T16:19:19Z</time>
      </trkpt>
      <trkpt lat="43.64466" lon="1.37884">
        <ele>149</ele>
        <time>2023-06-23T16:19:20Z</time>
      </trkpt>
      <trkpt lat="43.64464" lon="1.37886">
        <ele>149</ele>
        <time>2023-06-23T16:19:21Z</time>
      </trkpt>
      <trkpt lat="43.64463" lon="1.3789">
        <ele>149</ele>
        <time>2023-06-23T16:19:22Z</time>
      </trkpt>
      <trkpt lat="43.64461" lon="1.37893">
        <ele>149</ele>
        <time>2023-06-23T16:19:23Z</time>
      </trkpt>
      <trkpt lat="43.6446" lon="1.37896">
        <ele>149</ele>
        <time>2023-06-23T16:19:24Z</time>
      </trkpt>
      <trkpt lat="43.64459" lon="1.379">
        <ele>149</ele>
        <time>2023-06-23T16:19:25Z</time>
      </trkpt>
      <trkpt lat="43.64458" lon="1.37903">
        <ele>149</ele>
        <time>2023-06-23T16:19:26Z</time>
      </trkpt>
      <trkpt lat="43.64457" lon="1.37907">
        <ele>149</ele>
        <time>2023-06-23T16:19:27Z</time>
      </trkpt>
      <trkpt lat="43.64457" lon="1.37912">
        <ele>149</ele>
        <time>2023-06-23T16:19:28Z</time>
      </trkpt>
      <trkpt lat="43.64457" lon="1.37914">
        <ele>149</ele>
        <time>2023-06-23T16:19:29Z</time>
      </trkpt>
      <trkpt lat="43.64457" lon="1.37918">
        <ele>149</ele>
        <time>2023-06-23T16:19:30Z</time>
      </trkpt>
      <trkpt lat="43.64457" lon="1.37921">
        <ele>149</ele>
        <time>2023-06-23T16:19:31Z</time>
      </trkpt>
      <trkpt lat="43.64458" lon="1.37925">
        <ele>150</ele>
        <time>2023-06-23T16:19:32Z</time>
      </trkpt>
      <trkpt lat="43.64459" lon="1.37929">
        <ele>150</ele>
        <time>2023-06-23T16:19:33Z</time>
      </trkpt>
      <trkpt lat="43.6446" lon="1.37933">
        <ele>149</ele>
        <time>2023-06-23T16:19:34Z</time>
      </trkpt>
      <trkpt lat="43.64461" lon="1.37936">
        <ele>149</ele>
        <time>2023-06-23T16:19:35Z</time>
      </trkpt>
      <trkpt lat="43.64463" lon="1.3794">
        <ele>149</ele>
        <time>2023-06-23T16:19:36Z</time>
      </trkpt>
      <trkpt lat="43.64465" lon="1.37943">
        <ele>149</ele>
        <time>2023-06-23T16:19:37Z</time>
      </trkpt>
      <trkpt lat="43.64467" lon="1.37946">
        <ele>149</ele>
        <time>2023-06-23T16:19:38Z</time>
      </trkpt>
      <trkpt lat="43.6447" lon="1.37949">
        <ele>149</ele>
        <time>2023-06-23T16:19:39Z</time>
      </trkpt>
      <trkpt lat="43.64472" lon="1.37951">
        <ele>149</ele>
        <time>2023-06-23T16:19:40Z</time>
      </trkpt>
      <trkpt lat="43.64475" lon="1.37953">
        <ele>149</ele>
        <time>2023-06-23T16:19:41Z</time>
      </trkpt>
      <trkpt lat="43.64478" lon="1.37955">
        <ele>150</ele>
        <time>2023-06-23T16:19:42Z</time>
      </trkpt>
      <trkpt lat="43.64481" lon="1.37957">
        <ele>150</ele>
        <time>2023-06-23T16:19:43Z</time>
      </trkpt>
      <trkpt lat="43.64484" lon="1.37959">
        <ele>150</ele>
        <time>2023-06-23T16:19:44Z</time>
      </trkpt>
      <trkpt lat="43.64487" lon="1.3796">
        <ele>149</ele>
        <time>2023-06-23T16:19:45Z</time>
      </trkpt>
      <trkpt lat="43.6449" lon="1.37962">
        <ele>149</ele>
        <time>2023-06-23T16:19:46Z</time>
      </trkpt>
      <trkpt lat="43.64492" lon="1.37963">
        <ele>150</ele>
        <time>2023-06-23T16:19:47Z</time>
      </trkpt>
      <trkpt lat="43.64495" lon="1.37964">
        <ele>150</ele>
        <time>2023-06-23T16:19:48Z</time>
      </trkpt>
      <trkpt lat="43.64498" lon="1.37966">
        <ele>150</ele>
        <time>2023-06-23T16:19:49Z</time>
      </trkpt>
      <trkpt lat="43.64501" lon="1.37968">
        <ele>150</ele>
        <time>2023-06-23T16:19:50Z</time>
      </trkpt>
      <trkpt lat="43.64504" lon="1.37969">
        <ele>150</ele>
        <time>2023-06-23T16:19:51Z</time>
      </trkpt>
      <trkpt lat="43.64507" lon="1.37971">
        <ele>150</ele>
        <time>2023-06-23T16:19:52Z</time>
      </trkpt>
      <trkpt lat="43.6451" lon="1.37973">
        <ele>149</ele>
        <time>2023-06-23T16:19:53Z</time>
      </trkpt>
      <trkpt lat="43.64513" lon="1.37974">
        <ele>149</ele>
        <time>2023-06-23T16:19:54Z</time>
      </trkpt>
      <trkpt lat="43.64516" lon="1.37976">
        <ele>150</ele>
        <time>2023-06-23T16:19:55Z</time>
      </trkpt>
      <trkpt lat="43.64518" lon="1.37978">
        <ele>150</ele>
        <time>2023-06-23T16:19:56Z</time>
      </trkpt>
      <trkpt lat="43.64521" lon="1.3798">
        <ele>150</ele>
        <time>2023-06-23T16:19:57Z</time>
      </trkpt>
      <trkpt lat="43.64524" lon="1.37982">
        <ele>150</ele>
        <time>2023-06-23T16:19:58Z</time>
      </trkpt>
      <trkpt lat="43.64527" lon="1.37983">
        <ele>149</ele>
        <time>2023-06-23T16:19:59Z</time>
      </trkpt>
      <trkpt lat="43.6453" lon="1.37984">
        <ele>149</ele>
        <time>2023-06-23T16:20:00Z</time>
      </trkpt>
      <trkpt lat="43.64533" lon="1.37985">
        <ele>149</ele>
        <time>2023-06-23T16:20:01Z</time>
      </trkpt>
      <trkpt lat="43.64536" lon="1.37986">
        <ele>149</ele>
        <time>2023-06-23T16:20:02Z</time>
      </trkpt>
      <trkpt lat="43.64541" lon="1.37986">
        <ele>149</ele>
        <time>2023-06-23T16:20:03Z</time>
      </trkpt>
      <trkpt lat="43.64543" lon="1.37985">
        <ele>149</ele>
        <time>2023-06-23T16:20:04Z</time>
      </trkpt>
      <trkpt lat="43.64546" lon="1.37984">
        <ele>149</ele>
        <time>2023-06-23T16:20:05Z</time>
      </trkpt>
      <trkpt lat="43.64554" lon="1.37982">
        <ele>149</ele>
        <time>2023-06-23T16:20:06Z</time>
      </trkpt>
      <trkpt lat="43.64554" lon="1.37982">
        <ele>149</ele>
        <time>2023-06-23T16:20:07Z</time>
      </trkpt>
      <trkpt lat="43.64557" lon="1.3798">
        <ele>149</ele>
        <time>2023-06-23T16:20:08Z</time>
      </trkpt>
      <trkpt lat="43.6456" lon="1.37978">
        <ele>149</ele>
        <time>2023-06-23T16:20:09Z</time>
      </trkpt>
      <trkpt lat="43.64563" lon="1.37976">
        <ele>149</ele>
        <time>2023-06-23T16:20:10Z</time>
      </trkpt>
      <trkpt lat="43.64565" lon="1.37973">
        <ele>149</ele>
        <time>2023-06-23T16:20:11Z</time>
      </trkpt>
      <trkpt lat="43.64568" lon="1.37968">
        <ele>149</ele>
        <time>2023-06-23T16:20:12Z</time>
      </trkpt>
      <trkpt lat="43.64569" lon="1.37967">
        <ele>149</ele>
        <time>2023-06-23T16:20:13Z</time>
      </trkpt>
      <trkpt lat="43.6457" lon="1.37963">
        <ele>149</ele>
        <time>2023-06-23T16:20:14Z</time>
      </trkpt>
      <trkpt lat="43.64571" lon="1.37959">
        <ele>149</ele>
        <time>2023-06-23T16:20:15Z</time>
      </trkpt>
      <trkpt lat="43.64571" lon="1.37952">
        <ele>149</ele>
        <time>2023-06-23T16:20:16Z</time>
      </trkpt>
      <trkpt lat="43.64572" lon="1.3795">
        <ele>149</ele>
        <time>2023-06-23T16:20:17Z</time>
      </trkpt>
      <trkpt lat="43.64572" lon="1.37946">
        <ele>149</ele>
        <time>2023-06-23T16:20:18Z</time>
      </trkpt>
      <trkpt lat="43.64572" lon="1.37942">
        <ele>150</ele>
        <time>2023-06-23T16:20:19Z</time>
      </trkpt>
      <trkpt lat="43.64571" lon="1.37937">
        <ele>150</ele>
        <time>2023-06-23T16:20:20Z</time>
      </trkpt>
      <trkpt lat="43.6457" lon="1.37933">
        <ele>150</ele>
        <time>2023-06-23T16:20:21Z</time>
      </trkpt>
      <trkpt lat="43.64569" lon="1.37929">
        <ele>150</ele>
        <time>2023-06-23T16:20:22Z</time>
      </trkpt>
      <trkpt lat="43.64567" lon="1.37925">
        <ele>150</ele>
        <time>2023-06-23T16:20:23Z</time>
      </trkpt>
      <trkpt lat="43.64565" lon="1.37921">
        <ele>150</ele>
        <time>2023-06-23T16:20:24Z</time>
      </trkpt>
      <trkpt lat="43.6456" lon="1.37914">
        <ele>150</ele>
        <time>2023-06-23T16:20:25Z</time>
      </trkpt>
      <trkpt lat="43.6456" lon="1.37914">
        <ele>150</ele>
        <time>2023-06-23T16:20:26Z</time>
      </trkpt>
      <trkpt lat="43.64557" lon="1.37912">
        <ele>150</ele>
        <time>2023-06-23T16:20:27Z</time>
      </trkpt>
      <trkpt lat="43.64554" lon="1.37909">
        <ele>150</ele>
        <time>2023-06-23T16:20:28Z</time>
      </trkpt>
      <trkpt lat="43.64551" lon="1.37907">
        <ele>149</ele>
        <time>2023-06-23T16:20:29Z</time>
      </trkpt>
      <trkpt lat="43.64548" lon="1.37904">
        <ele>149</ele>
        <time>2023-06-23T16:20:30Z</time>
      </trkpt>
      <trkpt lat="43.64545" lon="1.37903">
        <ele>149</ele>
        <time>2023-06-23T16:20:31Z</time>
      </trkpt>
      <trkpt lat="43.64542" lon="1.37901">
        <ele>149</ele>
        <time>2023-06-23T16:20:32Z</time>
      </trkpt>
      <trkpt lat="43.64539" lon="1.379">
        <ele>150</ele>
        <time>2023-06-23T16:20:33Z</time>
      </trkpt>
      <trkpt lat="43.64536" lon="1.37898">
        <ele>150</ele>
        <time>2023-06-23T16:20:34Z</time>
      </trkpt>
      <trkpt lat="43.64533" lon="1.37896">
        <ele>150</ele>
        <time>2023-06-23T16:20:35Z</time>
      </trkpt>
      <trkpt lat="43.6453" lon="1.37894">
        <ele>149</ele>
        <time>2023-06-23T16:20:36Z</time>
      </trkpt>
      <trkpt lat="43.64528" lon="1.37892">
        <ele>149</ele>
        <time>2023-06-23T16:20:37Z</time>
      </trkpt>
      <trkpt lat="43.64525" lon="1.3789">
        <ele>149</ele>
        <time>2023-06-23T16:20:38Z</time>
      </trkpt>
      <trkpt lat="43.64522" lon="1.37889">
        <ele>149</ele>
        <time>2023-06-23T16:20:39Z</time>
      </trkpt>
      <trkpt lat="43.64519" lon="1.37887">
        <ele>149</ele>
        <time>2023-06-23T16:20:40Z</time>
      </trkpt>
      <trkpt lat="43.64516" lon="1.37885">
        <ele>149</ele>
        <time>2023-06-23T16:20:41Z</time>
      </trkpt>
      <trkpt lat="43.64513" lon="1.37883">
        <ele>150</ele>
        <time>2023-06-23T16:20:42Z</time>
      </trkpt>
      <trkpt lat="43.6451" lon="1.37882">
        <ele>150</ele>
        <time>2023-06-23T16:20:43Z</time>
      </trkpt>
      <trkpt lat="43.64506" lon="1.3788">
        <ele>150</ele>
        <time>2023-06-23T16:20:44Z</time>
      </trkpt>
      <trkpt lat="43.64504" lon="1.37879">
        <ele>150</ele>
        <time>2023-06-23T16:20:45Z</time>
      </trkpt>
      <trkpt lat="43.64502" lon="1.37877">
        <ele>150</ele>
        <time>2023-06-23T16:20:46Z</time>
      </trkpt>
      <trkpt lat="43.64498" lon="1.37875">
        <ele>150</ele>
        <time>2023-06-23T16:20:47Z</time>
      </trkpt>
      <trkpt lat="43.64496" lon="1.37874">
        <ele>149</ele>
        <time>2023-06-23T16:20:48Z</time>
      </trkpt>
      <trkpt lat="43.64493" lon="1.37873">
        <ele>149</ele>
        <time>2023-06-23T16:20:49Z</time>
      </trkpt>
      <trkpt lat="43.6449" lon="1.37873">
        <ele>150</ele>
        <time>2023-06-23T16:20:50Z</time>
      </trkpt>
      <trkpt lat="43.64487" lon="1.37872">
        <ele>150</ele>
        <time>2023-06-23T16:20:51Z</time>
      </trkpt>
      <trkpt lat="43.64484" lon="1.37873">
        <ele>150</ele>
        <time>2023-06-23T16:20:52Z</time>
      </trkpt>
      <trkpt lat="43.64481" lon="1.37873">
        <ele>150</ele>
        <time>2023-06-23T16:20:53Z</time>
      </trkpt>
      <trkpt lat="43.64478" lon="1.37874">
        <ele>149</ele>
        <time>2023-06-23T16:20:54Z</time>
      </trkpt>
      <trkpt lat="43.64475" lon="1.37875">
        <ele>149</ele>
        <time>2023-06-23T16:20:55Z</time>
      </trkpt>
      <trkpt lat="43.64471" lon="1.37878">
        <ele>149</ele>
        <time>2023-06-23T16:20:56Z</time>
      </trkpt>
      <trkpt lat="43.6447" lon="1.37879">
        <ele>149</ele>
        <time>2023-06-23T16:20:57Z</time>
      </trkpt>
      <trkpt lat="43.64468" lon="1.37882">
        <ele>149</ele>
        <time>2023-06-23T16:20:58Z</time>
      </trkpt>
      <trkpt lat="43.64466" lon="1.37884">
        <ele>149</ele>
        <time>2023-06-23T16:20:59Z</time>
      </trkpt>
      <trkpt lat="43.64464" lon="1.37888">
        <ele>149</ele>
        <time>2023-06-23T16:21:00Z</time>
      </trkpt>
      <trkpt lat="43.64463" lon="1.37891">
        <ele>149</ele>
        <time>2023-06-23T16:21:01Z</time>
      </trkpt>
      <trkpt lat="43.64461" lon="1.37894">
        <ele>149</ele>
        <time>2023-06-23T16:21:02Z</time>
      </trkpt>
      <trkpt lat="43.6446" lon="1.379">
        <ele>149</ele>
        <time>2023-06-23T16:21:03Z</time>
      </trkpt>
      <trkpt lat="43.64459" lon="1.37902">
        <ele>149</ele>
        <time>2023-06-23T16:21:04Z</time>
      </trkpt>
      <trkpt lat="43.64458" lon="1.37908">
        <ele>149</ele>
        <time>2023-06-23T16:21:05Z</time>
      </trkpt>
      <trkpt lat="43.64457" lon="1.37911">
        <ele>150</ele>
        <time>2023-06-23T16:21:06Z</time>
      </trkpt>
      <trkpt lat="43.64457" lon="1.37915">
        <ele>150</ele>
        <time>2023-06-23T16:21:07Z</time>
      </trkpt>
      <trkpt lat="43.64457" lon="1.37919">
        <ele>149</ele>
        <time>2023-06-23T16:21:08Z</time>
      </trkpt>
      <trkpt lat="43.64458" lon="1.37923">
        <ele>150</ele>
        <time>2023-06-23T16:21:09Z</time>
      </trkpt>
      <trkpt lat="43.6446" lon="1.37931">
        <ele>150</ele>
        <time>2023-06-23T16:21:10Z</time>
      </trkpt>
      <trkpt lat="43.6446" lon="1.37931">
        <ele>150</ele>
        <time>2023-06-23T16:21:11Z</time>
      </trkpt>
      <trkpt lat="43.64461" lon="1.37935">
        <ele>150</ele>
        <time>2023-06-23T16:21:12Z</time>
      </trkpt>
      <trkpt lat="43.64462" lon="1.37939">
        <ele>150</ele>
        <time>2023-06-23T16:21:13Z</time>
      </trkpt>
      <trkpt lat="43.64462" lon="1.37941">
        <ele>149</ele>
        <time>2023-06-23T16:21:14Z</time>
      </trkpt>
      <trkpt lat="43.64462" lon="1.37941">
        <ele>150</ele>
        <time>2023-06-23T16:21:15Z</time>
      </trkpt>
      <trkpt lat="43.64462" lon="1.37941">
        <ele>150</ele>
        <time>2023-06-23T16:21:16Z</time>
      </trkpt>
      <trkpt lat="43.64463" lon="1.37941">
        <ele>150</ele>
        <time>2023-06-23T16:21:17Z</time>
      </trkpt>
      <trkpt lat="43.64464" lon="1.37933">
        <ele>150</ele>
        <time>2023-06-23T16:21:21Z</time>
      </trkpt>
      <trkpt lat="43.64464" lon="1.37933">
        <ele>150</ele>
        <time>2023-06-23T16:21:22Z</time>
      </trkpt>
      <trkpt lat="43.64464" lon="1.37933">
        <ele>150</ele>
        <time>2023-06-23T16:21:23Z</time>
      </trkpt>
      <trkpt lat="43.64462" lon="1.37931">
        <ele>150</ele>
        <time>2023-06-23T16:21:24Z</time>
      </trkpt>
      <trkpt lat="43.64462" lon="1.37931">
        <ele>150</ele>
        <time>2023-06-23T16:21:25Z</time>
      </trkpt>
      <trkpt lat="43.64461" lon="1.37927">
        <ele>150</ele>
        <time>2023-06-23T16:21:26Z</time>
      </trkpt>
    </trkseg>
  </trk>
</gpx>